x

South Bermuda - 300 Nm Sse Of Bermuda (41049) Wave Buoy

12:50am - Mon 20th Feb 2017 All times are UTC.

  • Sig Wave height 5.6ft
  • Swell Direction
  • Peak Period 9s
  • Average Period 7s
  • Wind
    7mph, 11mph gusts
  • Sea Temp 72°f
  • Air Temp 69°f
  • Sea Pressure 1020.7mb

More Historic Weather Station data

Upgrade to MSW Pro to gain access to the past 30 days of data for over 8000 Wavebouys and Weather Stations around the globe.

Join Pro

Comparision Forecast

View Surf forecast
   
Mon 02/20 12:50am 5.5ft 9s 7s 7 11 mph 1020.7mb 72f 69f
Sun 02/19 11:50pm 5ft 10s 7s 7 9 mph 1020.7mb 72f 69f
10:50pm 6ft 9s 7s 7 11 mph 1020.6mb 72f 69f
9:50pm 6ft 9s 8s 7 9 mph 1020.4mb 72f 69f
8:50pm 6ft 10s 7s 7 9 mph 1020.1mb 72f 69f
7:50pm 6ft 10s 7s 7 9 mph 1019.9mb 72f 69f
6:50pm 6ft 10s 8s 9 11 mph 1019.7mb 72f 69f
5:50pm 6ft 10s 7s 11 13 mph 1020mb 72f 69f
4:50pm 6.5ft 10s 7s 9 11 mph 1020.7mb 72f 69f
3:50pm 7ft 10s 7s 9 11 mph 1021.6mb 72f 69f
2:50pm 6.5ft 10s 7s 9 11 mph 1022.2mb 72f 69f
1:50pm 7ft 10s 7s 13 16 mph 1022.2mb 72f 69f
12:50pm 7ft 10s 7s 13 16 mph 1022.2mb 72f 69f
11:50am 7.5ft 9s 7s 11 13 mph 1021.6mb 72f 69f
10:50am 8ft 10s 7s 11 16 mph 1021.3mb 72f 68f
9:50am 9ft 10s 7s 11 16 mph 1021.1mb 72f 68f
8:50am 8ft 10s 7s 11 13 mph 1021.1mb 72f 69f
7:50am 9ft 10s 8s 11 16 mph 1020.9mb 72f 69f
6:50am 8.5ft 10s 7s 11 16 mph 1021.1mb 72f 69f
5:50am 9.5ft 11s 8s 11 13 mph 1021.6mb 72f 69f
4:50am 8.5ft 10s 7s 11 16 mph 1021.6mb 72f 69f
3:50am 9.5ft 11s 8s 16 18 mph 1021.6mb 72f 69f
2:50am 9ft 11s 7s 13 18 mph 1021.8mb 72f 69f
1:50am 8ft 11s 7s 16 20 mph 1021.9mb 72f 69f
12:50am 9ft 11s 7s 16 18 mph 1021.6mb 72f 69f
Sat 02/18 11:50pm 9ft 11s 8s 16 20 mph 1021.3mb 72f 69f
10:50pm 10ft 11s 8s 16 20 mph 1020.4mb 72f 69f
9:50pm 10ft 11s 8s 13 18 mph 1020mb 72f 69f
8:50pm 9ft 11s 8s 16 20 mph 1019.4mb 72f 69f
7:50pm 9.5ft 12s 8s 16 20 mph 1019mb 72f 69f
6:50pm 10ft 12s 8s 13 20 mph 1018.9mb 72f 69f
5:50pm 10ft 12s 8s 16 20 mph 1018.9mb 72f 69f
4:50pm 10ft 11s 8s 16 22 mph 1019.4mb 72f 69f
3:50pm 10.5ft 12s 8s 18 22 mph 1020.1mb 72f 69f
2:50pm 11ft 12s 8s 20 25 mph 1020.2mb 72f 69f
1:50pm 11.5ft 12s 8s 20 25 mph 1019.8mb 72f 69f
12:50pm 11.5ft 11s 8s 22 27 mph 1019.2mb 72f 69f
11:50am 12ft 12s 8s 20 27 mph 1018.3mb 72f 69f
10:50am 11.5ft 11s 8s 18 22 mph 1017.8mb 72f 69f
9:50am 12.5ft 12s 8s 20 25 mph 1017.2mb 72f 69f
8:50am 11ft 12s 8s 18 25 mph 1016.6mb 72f 68f
7:50am 11.5ft 12s 8s 18 20 mph 1016.3mb 72f 69f
6:50am 13ft 11s 8s 18 22 mph 1016.3mb 72f 68f
5:50am 13ft 11s 8s 18 22 mph 1016.1mb 72f 69f
4:50am 12ft 10s 8s 20 25 mph 1016.2mb 72f 69f
3:50am 12.5ft 12s 8s 20 25 mph 1016.4mb 72f 69f
2:50am 11ft 12s 8s 20 27 mph 1016.6mb 72f 69f
1:50am 10ft 11s 8s 13 18 mph 1017mb 72f 68f
12:50am 9ft 10s 7s 16 22 mph 1016.5mb 72f 69f
Fri 02/17 11:50pm 9ft 10s 7s 18 25 mph 1016mb 72f 70f
10:50pm 9ft 10s 7s 20 25 mph 1015.1mb 72f 70f
9:50pm 8.5ft 11s 7s 20 25 mph 1014.7mb 72f 70f
8:50pm 8ft 10s 7s 20 25 mph 1014.1mb 72f 70f
7:50pm 9ft 11s 7s 18 22 mph 1013.7mb 72f 70f
6:50pm 9.5ft 11s 7s 18 22 mph 1013.3mb 72f 70f
5:50pm 9ft 11s 7s 16 20 mph 1013.4mb 72f 71f
4:50pm 9ft 11s 7s 16 18 mph 1013.8mb 72f 72f
3:50pm 9.5ft 11s 8s 16 18 mph 1013.9mb 72f 72f
2:50pm 9.5ft 11s 8s 13 16 mph 1014.2mb 72f 72f
1:50pm 10ft 11s 8s 11 16 mph 1013.9mb 72f 72f
12:50pm 9ft 9s 7s 11 13 mph 1013.8mb 72f 72f
11:50am 9ft 8s 7s 13 18 mph 1013mb 72f 71f
10:50am 9ft 8s 7s 16 18 mph 1012mb 72f 72f
9:50am 9ft 8s 6s 16 20 mph 1011.6mb 72f 72f
8:50am 8ft 8s 6s 20 25 mph 1010.9mb 72f 72f
7:50am 7.5ft 9s 6s 20 25 mph 1010.8mb 72f 73f
6:50am 8ft 8s 6s 22 27 mph 1010.5mb 72f 73f
5:50am 8ft 8s 6s 22 27 mph 1010.7mb 72f 72f
4:50am 8ft 8s 6s 25 31 mph 1011.5mb 72f 71f
3:50am 8ft 8s 6s 22 27 mph 1012.3mb 72f 69f
2:50am 7.5ft 8s 6s 22 29 mph 1012.4mb 72f 73f
1:50am 7ft 8s 6s 20 27 mph 1012.7mb 72f 74f
12:50am 8ft 8s 6s 22 27 mph 1012.5mb 72f 74f
Thu 02/16 11:50pm 7ft 8s 6s 22 29 mph 1012.4mb 72f 74f
10:50pm 7ft 7s 6s 22 27 mph 1011.9mb 72f 74f
9:50pm 7ft 8s 6s 20 25 mph 1011.9mb 72f 74f
8:50pm 7ft 8s 6s 20 22 mph 1012.2mb 72f 74f
7:50pm 7ft 8s 6s 20 25 mph 1012.2mb 72f 74f
6:50pm 7.5ft 8s 6s 18 22 mph 1012.7mb 72f 74f
5:50pm 7.5ft 7s 6s 20 25 mph 1013.3mb 72f 74f
4:50pm 7ft 13s 6s 20 25 mph 1014.2mb 72f 74f
3:50pm 7.5ft 14s 6s 20 27 mph 1015mb 72f 74f
2:50pm 7.5ft 13s 6s 22 27 mph 1015.5mb 72f 74f
1:50pm 8ft 13s 6s 22 25 mph 1015.3mb 72f 74f
12:50pm 8ft 13s 7s 22 27 mph 1015.1mb 72f 74f
11:50am 7ft 11s 6s 20 25 mph 1015.1mb 72f 74f
10:50am 9ft 13s 7s 20 25 mph 1015mb 72f 73f
9:50am 8.5ft 13s 7s 20 25 mph 1014.7mb 72f 73f
8:50am 9ft 13s 7s 20 25 mph 1015mb 72f 73f
7:50am 8.5ft 13s 7s 20 25 mph 1015.4mb 72f 73f
6:50am 8ft 13s 7s 22 27 mph 1015.5mb 72f 73f
5:50am 8ft 14s 7s 22 29 mph 1015.9mb 72f 73f
4:50am 8.5ft 13s 8s 20 25 mph 1016.9mb 72f 72f
3:50am 9ft 13s 8s 18 22 mph 1017.2mb 72f 71f
2:50am 11ft 13s 9s 18 22 mph 1017.4mb 72f 71f